Time;durP1;ratioP1;P1;durP2;ratioP2;P2;SDS_P1;SDS_P2;PMS_P1;PMS_P2;Temp;Humidity;BMP_temperature;BMP_pressure;BME280_temperature;BME280_humidity;BME280_pressure;Samples;Min_cycle;Max_cycle;Signal;HPM_P1;HPM_P2
2023/12/10 00:02:14;;;;;;;;;;;8.30;99.90;;;;;;5028426;28;19925;-58
2023/12/10 00:04:43;;;;;;;;;;;8.30;99.90;;;;;;5027543;28;19925;-58
2023/12/10 00:07:11;;;;;;;;;;;8.20;99.90;;;;;;5028429;28;19925;-57
2023/12/10 00:09:39;;;;;;;;;;;8.10;99.90;;;;;;5026976;28;19951;-59
2023/12/10 00:12:07;;;;;;;;;;;8.10;99.90;;;;;;5025146;28;19928;-58
2023/12/10 00:14:35;;;;;;;;;;;8.00;99.90;;;;;;5028328;28;19925;-58
2023/12/10 00:17:06;;;;;;;;;;;8.00;99.90;;;;;;5028515;28;19932;-56
2023/12/10 00:19:34;;;;;;;;;;;7.90;99.90;;;;;;5028223;28;19925;-56
2023/12/10 00:22:02;;;;;;;;;;;7.90;99.90;;;;;;5026714;28;19925;-57
2023/12/10 00:24:30;;;;;;;;;;;7.90;99.90;;;;;;5028372;28;19940;-58
2023/12/10 00:26:57;;;;;;;;;;;7.90;99.90;;;;;;5020181;28;19936;-58
2023/12/10 00:29:27;;;;;;;;;;;7.80;99.90;;;;;;5037582;28;20400;-58
2023/12/10 00:31:55;;;;;;;;;;;7.80;99.90;;;;;;5028247;28;19925;-58
2023/12/10 00:34:22;;;;;;;;;;;7.80;99.90;;;;;;5027885;28;19947;-59
2023/12/10 00:36:51;;;;;;;;;;;7.80;99.90;;;;;;5028049;28;19932;-58
2023/12/10 00:39:19;;;;;;;;;;;7.80;99.90;;;;;;5027688;28;19929;-59
2023/12/10 00:41:47;;;;;;;;;;;7.90;99.90;;;;;;5021954;28;19925;-59
2023/12/10 00:44:14;;;;;;;;;;;7.90;99.90;;;;;;5026483;28;19944;-58
2023/12/10 00:46:42;;;;;;;;;;;7.90;99.90;;;;;;5028281;28;19928;-59
2023/12/10 00:49:10;;;;;;;;;;;7.90;99.90;;;;;;5028008;28;19930;-59
2023/12/10 00:51:38;;;;;;;;;;;7.90;99.90;;;;;;5028121;28;19932;-56
2023/12/10 00:54:06;;;;;;;;;;;7.90;99.90;;;;;;5026772;28;19925;-58
2023/12/10 00:56:34;;;;;;;;;;;7.80;99.90;;;;;;5024871;28;20297;-57
2023/12/10 00:59:02;;;;;;;;;;;7.80;99.90;;;;;;5025194;28;19932;-58
2023/12/10 01:01:30;;;;;;;;;;;7.80;99.90;;;;;;5027527;28;19925;-59
2023/12/10 01:03:57;;;;;;;;;;;7.70;99.90;;;;;;5035555;28;19924;-57
2023/12/10 01:06:30;;;;;;;;;;;7.60;99.90;;;;;;5038579;28;19926;-57
2023/12/10 01:08:59;;;;;;;;;;;7.50;99.90;;;;;;5026472;28;19932;-58
2023/12/10 01:11:26;;;;;;;;;;;7.40;99.90;;;;;;5027087;28;20594;-59
2023/12/10 01:13:55;;;;;;;;;;;7.40;99.90;;;;;;5020503;28;20815;-58
2023/12/10 01:16:23;;;;;;;;;;;7.40;99.90;;;;;;5027933;28;20293;-58
2023/12/10 01:18:51;;;;;;;;;;;7.30;99.90;;;;;;5029027;28;20294;-58
2023/12/10 01:21:18;;;;;;;;;;;7.40;99.90;;;;;;5026852;28;20357;-58
2023/12/10 01:23:50;;;;;;;;;;;7.30;99.90;;;;;;5026134;28;19925;-58
2023/12/10 01:26:18;;;;;;;;;;;7.30;99.90;;;;;;5027784;28;19925;-58
2023/12/10 01:28:46;;;;;;;;;;;7.30;99.90;;;;;;5017093;28;20279;-57
2023/12/10 01:31:14;;;;;;;;;;;7.30;99.90;;;;;;5028590;28;19925;-57
2023/12/10 01:33:42;;;;;;;;;;;7.30;99.90;;;;;;5043288;28;19932;-57
2023/12/10 01:36:22;;;;;;;;;;;7.30;99.90;;;;;;5029950;28;19933;-60
2023/12/10 01:38:50;;;;;;;;;;;7.30;99.90;;;;;;5030877;28;19925;-57
2023/12/10 01:41:18;;;;;;;;;;;7.30;99.90;;;;;;5030685;28;19925;-57
2023/12/10 01:43:46;;;;;;;;;;;7.20;99.90;;;;;;5029748;28;19932;-57
2023/12/10 01:46:16;;;;;;;;;;;7.20;99.90;;;;;;5031175;28;19929;-57
2023/12/10 01:48:44;;;;;;;;;;;7.20;99.90;;;;;;5030731;28;20404;-58
2023/12/10 01:51:12;;;;;;;;;;;7.10;99.90;;;;;;5030139;28;19925;-58
2023/12/10 01:53:40;;;;;;;;;;;7.10;99.90;;;;;;5040781;28;19929;-58
2023/12/10 01:56:09;;;;;;;;;;;7.00;99.90;;;;;;5051005;28;19932;-58
2023/12/10 01:58:38;;;;;;;;;;;7.10;99.90;;;;;;5032687;28;19931;-58
2023/12/10 02:01:07;;;;;;;;;;;7.10;99.90;;;;;;5036901;28;20385;-59
2023/12/10 02:03:35;;;;;;;;;;;7.10;99.90;;;;;;5030157;28;20302;-59
2023/12/10 02:06:03;;;;;;;;;;;7.10;99.90;;;;;;5030787;28;20370;-58
2023/12/10 02:08:31;;;;;;;;;;;7.00;99.90;;;;;;5030743;28;19925;-58
2023/12/10 02:10:59;;;;;;;;;;;7.00;99.90;;;;;;5030776;28;20116;-58
2023/12/10 02:13:27;;;;;;;;;;;7.00;99.90;;;;;;5037258;28;19925;-58
2023/12/10 02:15:55;;;;;;;;;;;7.00;99.90;;;;;;5050551;28;19929;-58
2023/12/10 02:18:23;;;;;;;;;;;7.00;99.90;;;;;;5048833;28;19929;-58
2023/12/10 02:20:51;;;;;;;;;;;7.00;99.90;;;;;;5030249;28;20293;-59
2023/12/10 02:23:18;;;;;;;;;;;7.00;99.90;;;;;;5030762;28;19932;-58
2023/12/10 02:25:46;;;;;;;;;;;6.90;99.90;;;;;;5030550;28;20648;-59
2023/12/10 02:28:21;;;;;;;;;;;6.90;99.90;;;;;;5023937;28;20504;-60
2023/12/10 02:30:49;;;;;;;;;;;6.90;99.90;;;;;;5027883;28;21841;-58
2023/12/10 02:33:17;;;;;;;;;;;6.80;99.90;;;;;;5013997;28;19933;-59
2023/12/10 02:35:46;;;;;;;;;;;6.80;99.90;;;;;;5033505;28;20400;-59
2023/12/10 02:38:13;;;;;;;;;;;6.70;99.90;;;;;;5033610;28;20381;-60
2023/12/10 02:40:41;;;;;;;;;;;6.70;99.90;;;;;;5032201;28;19933;-58
2023/12/10 02:43:09;;;;;;;;;;;6.60;99.90;;;;;;5027927;28;20341;-59
2023/12/10 02:45:36;;;;;;;;;;;6.60;99.90;;;;;;5031565;28;19948;-58
2023/12/10 02:48:04;;;;;;;;;;;6.50;99.90;;;;;;5031264;28;19925;-59
2023/12/10 02:50:32;;;;;;;;;;;6.50;99.90;;;;;;5033207;28;19925;-58
2023/12/10 02:53:00;;;;;;;;;;;6.50;99.90;;;;;;5032986;28;19929;-58
2023/12/10 02:55:28;;;;;;;;;;;6.50;99.90;;;;;;5033086;28;19933;-58
2023/12/10 02:57:56;;;;;;;;;;;6.50;99.90;;;;;;5032537;28;19939;-58
2023/12/10 03:00:24;;;;;;;;;;;6.50;99.90;;;;;;5035195;28;20408;-58
2023/12/10 03:02:52;;;;;;;;;;;6.50;99.90;;;;;;5031391;28;20297;-58
2023/12/10 03:05:19;;;;;;;;;;;6.50;99.90;;;;;;5042522;28;19933;-58
2023/12/10 03:07:47;;;;;;;;;;;6.50;99.90;;;;;;4995587;28;19926;-58
2023/12/10 03:10:15;;;;;;;;;;;6.50;99.90;;;;;;5029884;28;19925;-58
2023/12/10 03:12:42;;;;;;;;;;;6.50;99.90;;;;;;5031142;28;19925;-58
2023/12/10 03:15:10;;;;;;;;;;;6.50;99.90;;;;;;5032583;28;19929;-58
2023/12/10 03:17:38;;;;;;;;;;;6.50;99.90;;;;;;5032712;28;20396;-58
2023/12/10 03:20:07;;;;;;;;;;;6.40;99.90;;;;;;5032887;28;19925;-58
2023/12/10 03:22:35;;;;;;;;;;;6.40;99.90;;;;;;5032156;28;20275;-58
2023/12/10 03:25:03;;;;;;;;;;;6.40;99.90;;;;;;5031881;28;19925;-58
2023/12/10 03:27:37;;;;;;;;;;;6.30;99.90;;;;;;5032279;28;19925;-59
2023/12/10 03:30:05;;;;;;;;;;;6.30;99.90;;;;;;5037936;28;19925;-58
2023/12/10 03:32:33;;;;;;;;;;;6.30;99.90;;;;;;5050984;28;20288;-59
2023/12/10 03:35:01;;;;;;;;;;;6.30;99.90;;;;;;5031090;28;19932;-58
2023/12/10 03:37:29;;;;;;;;;;;6.30;99.90;;;;;;5032070;28;19932;-58
2023/12/10 03:39:57;;;;;;;;;;;6.30;99.90;;;;;;5032285;28;20301;-59
2023/12/10 03:42:28;;;;;;;;;;;6.30;99.90;;;;;;5030781;28;19932;-58
2023/12/10 03:44:58;;;;;;;;;;;6.20;99.90;;;;;;5031766;28;20275;-58
2023/12/10 03:47:26;;;;;;;;;;;6.20;99.90;;;;;;5031071;28;19925;-58
2023/12/10 03:49:54;;;;;;;;;;;6.10;99.90;;;;;;5032247;28;19932;-58
2023/12/10 03:52:22;;;;;;;;;;;6.10;99.90;;;;;;5032359;28;20373;-58
2023/12/10 03:54:49;;;;;;;;;;;6.10;99.90;;;;;;5031945;28;20279;-58
2023/12/10 03:57:17;;;;;;;;;;;6.10;99.90;;;;;;5031065;28;19933;-58
2023/12/10 03:59:45;;;;;;;;;;;6.00;99.90;;;;;;5034641;28;20535;-58
2023/12/10 04:02:13;;;;;;;;;;;5.90;99.90;;;;;;5048816;28;19932;-58
2023/12/10 04:04:41;;;;;;;;;;;5.80;99.90;;;;;;5031332;28;19929;-59
2023/12/10 04:07:09;;;;;;;;;;;5.70;99.90;;;;;;5031472;28;19940;-58
2023/12/10 04:09:37;;;;;;;;;;;5.60;99.90;;;;;;5031734;28;19925;-59
2023/12/10 04:12:05;;;;;;;;;;;5.50;99.90;;;;;;5031926;28;19932;-59
2023/12/10 04:14:33;;;;;;;;;;;5.50;99.90;;;;;;5031942;28;19925;-59
2023/12/10 04:17:03;;;;;;;;;;;5.50;99.90;;;;;;5031611;28;19944;-59
2023/12/10 04:19:30;;;;;;;;;;;5.60;99.90;;;;;;5031380;28;20366;-59
2023/12/10 04:21:58;;;;;;;;;;;5.70;99.90;;;;;;5013697;28;19925;-58
2023/12/10 04:24:26;;;;;;;;;;;5.80;99.90;;;;;;5031152;28;19925;-58
2023/12/10 04:26:53;;;;;;;;;;;5.90;99.90;;;;;;5031395;28;20393;-58
2023/12/10 04:29:21;;;;;;;;;;;6.00;99.90;;;;;;5030239;28;19929;-58
2023/12/10 04:31:49;;;;;;;;;;;6.00;99.90;;;;;;5047283;28;19929;-58
2023/12/10 04:34:17;;;;;;;;;;;6.10;99.90;;;;;;5030599;28;19925;-58
2023/12/10 04:36:45;;;;;;;;;;;6.00;99.90;;;;;;5031335;28;20390;-58
2023/12/10 04:39:15;;;;;;;;;;;6.00;99.90;;;;;;5031210;28;19940;-58
2023/12/10 04:41:43;;;;;;;;;;;5.90;99.90;;;;;;5031678;28;19925;-59
2023/12/10 04:44:11;;;;;;;;;;;5.80;99.90;;;;;;5031380;28;19948;-58
2023/12/10 04:46:38;;;;;;;;;;;5.80;99.90;;;;;;5031734;28;19925;-58
2023/12/10 04:49:07;;;;;;;;;;;5.80;99.90;;;;;;5031124;28;19926;-58
2023/12/10 04:51:35;;;;;;;;;;;5.80;99.90;;;;;;5031627;28;19940;-58
2023/12/10 04:54:02;;;;;;;;;;;5.70;99.90;;;;;;5031521;28;19932;-59
2023/12/10 04:56:30;;;;;;;;;;;5.80;99.90;;;;;;5031056;28;19932;-58
2023/12/10 04:58:58;;;;;;;;;;;5.80;99.90;;;;;;5031289;28;19948;-58
2023/12/10 05:01:25;;;;;;;;;;;5.80;99.90;;;;;;5036262;28;19925;-58
2023/12/10 05:03:53;;;;;;;;;;;5.80;99.90;;;;;;5029723;28;19932;-59
2023/12/10 05:06:21;;;;;;;;;;;5.80;99.90;;;;;;5031295;28;20443;-58
2023/12/10 05:08:49;;;;;;;;;;;5.80;99.90;;;;;;5015507;28;19925;-58
2023/12/10 05:11:17;;;;;;;;;;;5.80;99.90;;;;;;5035062;28;20538;-58
2023/12/10 05:13:44;;;;;;;;;;;5.70;99.90;;;;;;5035013;28;19925;-58
2023/12/10 05:16:12;;;;;;;;;;;5.80;99.90;;;;;;5033613;28;20313;-58
2023/12/10 05:18:40;;;;;;;;;;;5.70;99.90;;;;;;5034592;28;19933;-58
2023/12/10 05:21:08;;;;;;;;;;;5.80;99.90;;;;;;5034359;28;19925;-58
2023/12/10 05:23:36;;;;;;;;;;;5.90;99.90;;;;;;5034773;28;19949;-58
2023/12/10 05:26:04;;;;;;;;;;;6.00;99.90;;;;;;5034757;28;19925;-58
2023/12/10 05:28:31;;;;;;;;;;;6.00;99.90;;;;;;5034295;28;19925;-58
2023/12/10 05:30:59;;;;;;;;;;;6.10;99.90;;;;;;5041674;28;19925;-58
2023/12/10 05:33:27;;;;;;;;;;;6.20;99.90;;;;;;5033393;28;20317;-58
2023/12/10 05:35:55;;;;;;;;;;;6.20;99.90;;;;;;5033317;28;19925;-58
2023/12/10 05:38:23;;;;;;;;;;;6.20;99.90;;;;;;5034678;28;19929;-58
2023/12/10 05:40:50;;;;;;;;;;;6.20;99.90;;;;;;5034511;28;19925;-58
2023/12/10 05:43:18;;;;;;;;;;;6.20;99.90;;;;;;5034327;28;19926;-59
2023/12/10 05:45:46;;;;;;;;;;;6.20;99.90;;;;;;5034143;28;19925;-58
2023/12/10 05:48:14;;;;;;;;;;;6.30;99.90;;;;;;5024461;28;19925;-59
2023/12/10 05:50:42;;;;;;;;;;;6.30;99.90;;;;;;5012131;28;19930;-58
2023/12/10 05:53:09;;;;;;;;;;;6.30;99.90;;;;;;5030106;28;19932;-58
2023/12/10 05:55:37;;;;;;;;;;;6.30;99.90;;;;;;5030806;28;19948;-59
2023/12/10 05:58:07;;;;;;;;;;;6.30;99.90;;;;;;5030497;28;19937;-58
2023/12/10 06:00:35;;;;;;;;;;;6.40;99.90;;;;;;5038303;28;19951;-59
2023/12/10 06:03:02;;;;;;;;;;;6.40;99.90;;;;;;5021743;28;19935;-57
2023/12/10 06:05:30;;;;;;;;;;;6.40;99.90;;;;;;5027486;28;19925;-57
2023/12/10 06:07:58;;;;;;;;;;;6.40;99.90;;;;;;5026919;28;19936;-58
2023/12/10 06:10:25;;;;;;;;;;;6.30;99.90;;;;;;5027061;28;19925;-58
2023/12/10 06:12:53;;;;;;;;;;;6.40;99.90;;;;;;5027295;28;19925;-58
2023/12/10 06:15:21;;;;;;;;;;;6.30;99.90;;;;;;5025878;28;19933;-57
2023/12/10 06:17:49;;;;;;;;;;;6.40;99.90;;;;;;5025587;28;19925;-57
2023/12/10 06:20:18;;;;;;;;;;;6.30;99.90;;;;;;5027956;28;19932;-58
2023/12/10 06:22:46;;;;;;;;;;;6.30;99.90;;;;;;5027663;28;19933;-58
2023/12/10 06:25:14;;;;;;;;;;;6.20;99.90;;;;;;5027421;28;20389;-57
2023/12/10 06:27:42;;;;;;;;;;;6.20;99.90;;;;;;5029827;28;20393;-58
2023/12/10 06:30:10;;;;;;;;;;;6.20;99.90;;;;;;5034321;28;19925;-58
2023/12/10 06:32:37;;;;;;;;;;;6.10;99.90;;;;;;5046905;28;19925;-58
2023/12/10 06:35:06;;;;;;;;;;;6.10;99.90;;;;;;5046126;28;19925;-57
2023/12/10 06:37:37;;;;;;;;;;;6.10;99.90;;;;;;5030953;28;20403;-58
2023/12/10 06:40:05;;;;;;;;;;;6.20;99.90;;;;;;5030443;28;20374;-57
2023/12/10 06:42:34;;;;;;;;;;;6.20;99.90;;;;;;5026113;28;19936;-57
2023/12/10 06:45:03;;;;;;;;;;;6.20;99.90;;;;;;5036376;28;19933;-57
2023/12/10 06:47:31;;;;;;;;;;;6.30;99.90;;;;;;5031498;28;20296;-58
2023/12/10 06:49:59;;;;;;;;;;;6.30;99.90;;;;;;5016490;28;20112;-58
2023/12/10 06:52:26;;;;;;;;;;;6.30;99.90;;;;;;5030117;28;19925;-58
2023/12/10 06:54:55;;;;;;;;;;;6.30;99.90;;;;;;5009014;28;19944;-58
2023/12/10 06:57:27;;;;;;;;;;;6.30;99.90;;;;;;5021096;28;19929;-58
2023/12/10 06:59:54;;;;;;;;;;;6.40;99.90;;;;;;5033549;28;19936;-58
2023/12/10 07:02:22;;;;;;;;;;;6.40;99.90;;;;;;5038846;28;19932;-58
2023/12/10 07:04:50;;;;;;;;;;;6.40;99.90;;;;;;5008307;28;19926;-58
2023/12/10 07:07:18;;;;;;;;;;;6.40;99.90;;;;;;5012084;28;19926;-57
2023/12/10 07:09:45;;;;;;;;;;;6.50;99.90;;;;;;5034906;28;20275;-58
2023/12/10 07:12:14;;;;;;;;;;;6.50;99.90;;;;;;5037474;28;19940;-58
2023/12/10 07:14:42;;;;;;;;;;;6.50;99.90;;;;;;5045444;28;20435;-58
2023/12/10 07:17:09;;;;;;;;;;;6.50;99.90;;;;;;5014009;28;19929;-58
2023/12/10 07:19:38;;;;;;;;;;;6.50;99.90;;;;;;5024319;28;19926;-58
2023/12/10 07:22:06;;;;;;;;;;;6.60;99.90;;;;;;5026627;28;20382;-58
2023/12/10 07:24:34;;;;;;;;;;;6.60;99.90;;;;;;5025505;28;19940;-58
2023/12/10 07:27:01;;;;;;;;;;;6.60;99.90;;;;;;5026255;28;19952;-58
2023/12/10 07:29:29;;;;;;;;;;;6.60;99.90;;;;;;5025713;28;19948;-57
2023/12/10 07:31:57;;;;;;;;;;;6.60;99.90;;;;;;5022675;28;20389;-58
2023/12/10 07:34:25;;;;;;;;;;;6.60;99.90;;;;;;5015959;28;20401;-58
2023/12/10 07:36:53;;;;;;;;;;;6.60;99.90;;;;;;5020907;28;19933;-58
2023/12/10 07:39:21;;;;;;;;;;;6.60;99.90;;;;;;5044202;28;19936;-58
2023/12/10 07:41:50;;;;;;;;;;;6.60;99.90;;;;;;5032278;28;19932;-57
2023/12/10 07:44:18;;;;;;;;;;;6.50;99.90;;;;;;5040247;28;19924;-57
2023/12/10 07:46:46;;;;;;;;;;;6.50;99.90;;;;;;5044093;28;20388;-57
2023/12/10 07:49:14;;;;;;;;;;;6.50;99.90;;;;;;5018819;28;19929;-58
2023/12/10 07:51:41;;;;;;;;;;;6.50;99.90;;;;;;5009249;28;20087;-57
2023/12/10 07:54:09;;;;;;;;;;;6.50;99.90;;;;;;5026496;28;19928;-57
2023/12/10 07:56:37;;;;;;;;;;;6.50;99.90;;;;;;5028896;28;19932;-57
2023/12/10 07:59:05;;;;;;;;;;;6.60;99.90;;;;;;5028411;28;19925;-57
2023/12/10 08:01:33;;;;;;;;;;;6.60;99.90;;;;;;5029651;28;19932;-57
2023/12/10 08:04:01;;;;;;;;;;;6.60;99.90;;;;;;5025037;28;19963;-58
2023/12/10 08:06:30;;;;;;;;;;;6.60;99.90;;;;;;5025685;28;19936;-57
2023/12/10 08:08:58;;;;;;;;;;;6.70;99.90;;;;;;5028135;28;20297;-57
2023/12/10 08:11:26;;;;;;;;;;;6.70;99.90;;;;;;5028632;28;20293;-57
2023/12/10 08:13:54;;;;;;;;;;;6.70;99.90;;;;;;5027885;28;19925;-57
2023/12/10 08:16:24;;;;;;;;;;;6.70;99.90;;;;;;5028461;28;20381;-57
2023/12/10 08:18:51;;;;;;;;;;;6.60;99.90;;;;;;5023040;28;20382;-57
2023/12/10 08:21:19;;;;;;;;;;;6.60;99.90;;;;;;5009004;28;19952;-57
2023/12/10 08:23:47;;;;;;;;;;;6.60;99.90;;;;;;5029081;28;19925;-57
2023/12/10 08:26:15;;;;;;;;;;;6.50;99.90;;;;;;5029558;28;19932;-57
2023/12/10 08:28:42;;;;;;;;;;;6.50;99.90;;;;;;5028394;28;19929;-57
2023/12/10 08:31:11;;;;;;;;;;;6.50;99.90;;;;;;5038426;28;19933;-57
2023/12/10 08:33:39;;;;;;;;;;;6.40;99.90;;;;;;5031736;28;19944;-57
2023/12/10 08:36:08;;;;;;;;;;;6.40;99.90;;;;;;5027666;28;19933;-57
2023/12/10 08:38:35;;;;;;;;;;;6.30;99.90;;;;;;5028303;28;19932;-57
2023/12/10 08:41:04;;;;;;;;;;;6.30;99.90;;;;;;5028886;28;20389;-58
2023/12/10 08:43:32;;;;;;;;;;;6.30;99.90;;;;;;5030231;28;19929;-57
2023/12/10 08:46:00;;;;;;;;;;;6.30;99.90;;;;;;5031204;28;19932;-58
2023/12/10 08:48:28;;;;;;;;;;;6.30;99.90;;;;;;5041993;28;19924;-57
2023/12/10 08:50:56;;;;;;;;;;;6.30;99.90;;;;;;5031232;28;19925;-57
2023/12/10 08:53:24;;;;;;;;;;;6.20;99.90;;;;;;5031621;28;20009;-57
2023/12/10 08:55:52;;;;;;;;;;;6.20;99.90;;;;;;5032340;28;19929;-58
2023/12/10 08:58:21;;;;;;;;;;;6.30;99.90;;;;;;5031767;28;19925;-57
2023/12/10 09:00:49;;;;;;;;;;;6.20;99.90;;;;;;5036157;28;19925;-57
2023/12/10 09:03:16;;;;;;;;;;;6.30;99.90;;;;;;5031848;28;20340;-57
2023/12/10 09:05:44;;;;;;;;;;;6.30;99.90;;;;;;5014101;28;19933;-57
2023/12/10 09:08:12;;;;;;;;;;;6.30;99.90;;;;;;5028479;28;19929;-57
2023/12/10 09:10:40;;;;;;;;;;;6.30;99.90;;;;;;5032034;28;19929;-57
2023/12/10 09:13:07;;;;;;;;;;;6.30;99.90;;;;;;5031578;28;19926;-57
2023/12/10 09:15:35;;;;;;;;;;;6.30;99.90;;;;;;5031895;28;19932;-57
2023/12/10 09:18:03;;;;;;;;;;;6.40;99.90;;;;;;5034435;28;19929;-57
2023/12/10 09:20:31;;;;;;;;;;;6.40;99.90;;;;;;5016502;28;19929;-57
2023/12/10 09:22:58;;;;;;;;;;;6.40;99.90;;;;;;5015420;28;19925;-57
2023/12/10 09:25:26;;;;;;;;;;;6.50;99.90;;;;;;5031267;28;19952;-57
2023/12/10 09:27:54;;;;;;;;;;;6.50;99.90;;;;;;5031506;28;20384;-57
2023/12/10 09:30:22;;;;;;;;;;;6.50;99.90;;;;;;5039021;28;19925;-57
2023/12/10 09:32:50;;;;;;;;;;;6.50;99.90;;;;;;5044512;28;19929;-57
2023/12/10 09:35:18;;;;;;;;;;;6.50;99.90;;;;;;5033804;28;19925;-57
2023/12/10 09:37:45;;;;;;;;;;;6.60;99.90;;;;;;5031048;28;19932;-57
2023/12/10 09:40:14;;;;;;;;;;;6.60;99.90;;;;;;5030139;28;19925;-57
2023/12/10 09:42:44;;;;;;;;;;;6.60;99.90;;;;;;5030771;28;19929;-57
2023/12/10 09:45:12;;;;;;;;;;;6.60;99.90;;;;;;5029555;28;19936;-57
2023/12/10 09:47:43;;;;;;;;;;;6.70;99.90;;;;;;5030673;28;19929;-57
2023/12/10 09:50:11;;;;;;;;;;;6.70;99.90;;;;;;5025917;28;20385;-57
2023/12/10 09:52:39;;;;;;;;;;;6.70;99.90;;;;;;5030616;28;19929;-58
2023/12/10 09:55:06;;;;;;;;;;;6.70;99.90;;;;;;5029631;28;19931;-57
2023/12/10 09:57:34;;;;;;;;;;;6.70;99.90;;;;;;5030790;28;20364;-57
2023/12/10 10:00:03;;;;;;;;;;;6.70;99.90;;;;;;5035181;28;19925;-57
2023/12/10 10:02:32;;;;;;;;;;;6.80;99.90;;;;;;5047700;28;19925;-57
2023/12/10 10:05:00;;;;;;;;;;;6.80;99.90;;;;;;5019808;28;20374;-57
2023/12/10 10:07:29;;;;;;;;;;;6.80;99.90;;;;;;5012730;28;20012;-57
2023/12/10 10:09:57;;;;;;;;;;;6.80;99.90;;;;;;5030634;28;19925;-57
2023/12/10 10:12:29;;;;;;;;;;;6.80;99.90;;;;;;5027921;28;20316;-57
2023/12/10 10:15:01;;;;;;;;;;;6.80;99.90;;;;;;5030199;28;19929;-57
2023/12/10 10:17:31;;;;;;;;;;;6.90;99.90;;;;;;5030375;28;20385;-57
2023/12/10 10:20:00;;;;;;;;;;;6.90;99.90;;;;;;5023320;28;19926;-57
2023/12/10 10:22:28;;;;;;;;;;;7.00;99.90;;;;;;5016666;28;19925;-56
2023/12/10 10:24:56;;;;;;;;;;;7.00;99.90;;;;;;5029572;28;19936;-57
2023/12/10 10:27:25;;;;;;;;;;;7.00;99.90;;;;;;5028250;28;19932;-57
2023/12/10 10:29:54;;;;;;;;;;;7.00;99.90;;;;;;5033803;28;19925;-56
2023/12/10 10:32:22;;;;;;;;;;;7.00;99.90;;;;;;5036594;28;19925;-56
2023/12/10 10:34:50;;;;;;;;;;;7.00;99.90;;;;;;5024083;28;19926;-56
2023/12/10 10:37:19;;;;;;;;;;;7.00;99.90;;;;;;5011694;28;19929;-56
2023/12/10 10:39:49;;;;;;;;;;;7.00;99.90;;;;;;5045209;28;19925;-55
2023/12/10 10:42:18;;;;;;;;;;;7.00;99.90;;;;;;5029904;28;19926;-56
2023/12/10 10:44:46;;;;;;;;;;;7.00;99.90;;;;;;5029517;28;20386;-57
2023/12/10 10:47:18;;;;;;;;;;;7.00;99.90;;;;;;5029679;28;19929;-56
2023/12/10 10:49:51;;;;;;;;;;;7.00;99.90;;;;;;5025951;28;20452;-56
2023/12/10 10:52:40;;;;;;;;;;;7.00;99.90;;;;;;5028477;28;19925;-56
2023/12/10 10:55:09;;;;;;;;;;;7.00;99.90;;;;;;5029762;28;19929;-56
2023/12/10 10:57:39;;;;;;;;;;;7.00;99.90;;;;;;5029928;28;19926;-56
2023/12/10 11:00:19;;;;;;;;;;;7.00;99.90;;;;;;5035138;28;20310;-56
2023/12/10 11:02:52;;;;;;;;;;;7.00;99.90;;;;;;5030165;28;20441;-56
2023/12/10 11:05:29;;;;;;;;;;;7.00;99.90;;;;;;5026474;28;19960;-56
2023/12/10 11:07:57;;;;;;;;;;;7.00;99.90;;;;;;5029597;28;19925;-56
2023/12/10 11:10:28;;;;;;;;;;;7.00;99.90;;;;;;5029925;28;19932;-57
2023/12/10 11:12:57;;;;;;;;;;;7.00;99.90;;;;;;5028401;28;20293;-56
2023/12/10 11:15:28;;;;;;;;;;;7.00;99.90;;;;;;5012919;28;20423;-56
2023/12/10 11:17:58;;;;;;;;;;;7.00;99.90;;;;;;5028322;28;19935;-56
2023/12/10 11:20:34;;;;;;;;;;;7.10;99.90;;;;;;5022501;28;20274;-56
2023/12/10 11:23:03;;;;;;;;;;;7.10;99.90;;;;;;5020996;28;19925;-56
2023/12/10 11:25:31;;;;;;;;;;;7.20;99.90;;;;;;5029524;28;19935;-56
2023/12/10 11:28:06;;;;;;;;;;;7.20;99.90;;;;;;5028147;28;19925;-56
2023/12/10 11:30:34;;;;;;;;;;;7.30;99.90;;;;;;5031930;28;20448;-56
2023/12/10 11:33:02;;;;;;;;;;;7.40;99.90;;;;;;5028339;28;19933;-56
2023/12/10 11:35:30;;;;;;;;;;;7.40;99.90;;;;;;5023150;28;19932;-56
2023/12/10 11:37:58;;;;;;;;;;;7.50;99.90;;;;;;5021000;28;19932;-56
2023/12/10 11:40:29;;;;;;;;;;;7.50;99.90;;;;;;5047709;28;19931;-56
2023/12/10 11:43:07;;;;;;;;;;;7.60;99.90;;;;;;5045203;28;19933;-56
2023/12/10 11:45:36;;;;;;;;;;;7.60;99.90;;;;;;5028994;28;19932;-56
2023/12/10 11:48:04;;;;;;;;;;;7.70;99.90;;;;;;5028115;28;19929;-56
2023/12/10 11:50:33;;;;;;;;;;;7.70;99.90;;;;;;5023954;28;19925;-56
2023/12/10 11:53:02;;;;;;;;;;;7.80;99.90;;;;;;5011722;28;19933;-56
2023/12/10 11:55:30;;;;;;;;;;;7.80;99.90;;;;;;5027396;28;20289;-56
2023/12/10 11:57:58;;;;;;;;;;;7.90;99.90;;;;;;5028607;28;19932;-56
2023/12/10 12:00:26;;;;;;;;;;;7.90;99.90;;;;;;5034962;28;20007;-56
2023/12/10 12:02:54;;;;;;;;;;;7.90;99.90;;;;;;5028293;28;19932;-56
2023/12/10 12:05:22;;;;;;;;;;;8.00;99.90;;;;;;5023116;28;19940;-56
2023/12/10 12:07:50;;;;;;;;;;;8.00;99.90;;;;;;5019523;28;19925;-56
2023/12/10 12:10:18;;;;;;;;;;;8.10;99.90;;;;;;5028374;28;19929;-56
2023/12/10 12:12:47;;;;;;;;;;;8.20;99.90;;;;;;5028290;28;20294;-56
2023/12/10 12:15:15;;;;;;;;;;;8.30;99.90;;;;;;5028427;28;19925;-56
2023/12/10 12:17:44;;;;;;;;;;;8.30;99.90;;;;;;5027805;28;20289;-56
2023/12/10 12:20:17;;;;;;;;;;;8.40;99.90;;;;;;5027436;28;19925;-56
2023/12/10 12:22:46;;;;;;;;;;;8.40;99.90;;;;;;5008897;28;19936;-56
2023/12/10 12:25:16;;;;;;;;;;;8.50;99.90;;;;;;5027589;28;19925;-56
2023/12/10 12:27:45;;;;;;;;;;;8.60;99.90;;;;;;5028030;28;19929;-56
2023/12/10 12:30:14;;;;;;;;;;;8.70;99.90;;;;;;5032165;28;19956;-57
2023/12/10 12:32:42;;;;;;;;;;;8.80;99.90;;;;;;5027750;28;20093;-56
2023/12/10 12:35:10;;;;;;;;;;;8.80;99.90;;;;;;5027092;28;19932;-56
2023/12/10 12:37:38;;;;;;;;;;;8.80;99.90;;;;;;5027473;28;19925;-56
2023/12/10 12:40:06;;;;;;;;;;;8.90;99.90;;;;;;5028792;28;19925;-56
2023/12/10 12:42:34;;;;;;;;;;;8.90;99.90;;;;;;5028233;28;20563;-56
2023/12/10 12:45:03;;;;;;;;;;;8.90;99.90;;;;;;5027814;28;19925;-57
2023/12/10 12:47:31;;;;;;;;;;;8.90;99.90;;;;;;5028059;28;20022;-56
2023/12/10 12:49:59;;;;;;;;;;;9.00;99.90;;;;;;5028195;28;19939;-57
2023/12/10 12:52:28;;;;;;;;;;;9.00;99.90;;;;;;5011590;28;19968;-56
2023/12/10 12:54:56;;;;;;;;;;;9.00;99.90;;;;;;5024336;28;19929;-56
2023/12/10 12:57:24;;;;;;;;;;;9.00;99.90;;;;;;5008593;28;19929;-57
2023/12/10 12:59:52;;;;;;;;;;;9.10;99.90;;;;;;5046747;28;19936;-56
2023/12/10 13:02:20;;;;;;;;;;;9.10;99.90;;;;;;5042138;28;19952;-56
2023/12/10 13:04:48;;;;;;;;;;;9.10;99.90;;;;;;5027797;28;19925;-56
2023/12/10 13:07:16;;;;;;;;;;;9.10;99.90;;;;;;5020670;28;19925;-56
2023/12/10 13:09:45;;;;;;;;;;;9.10;99.90;;;;;;5027986;28;19925;-56
2023/12/10 13:12:13;;;;;;;;;;;9.10;99.90;;;;;;5027903;28;19925;-56
2023/12/10 13:14:41;;;;;;;;;;;9.10;99.90;;;;;;5027826;28;20515;-56
2023/12/10 13:17:10;;;;;;;;;;;9.20;99.90;;;;;;5028308;28;19933;-56
2023/12/10 13:19:38;;;;;;;;;;;9.10;99.90;;;;;;5030439;28;19929;-57
2023/12/10 13:22:06;;;;;;;;;;;9.20;99.90;;;;;;5018071;28;19929;-56
2023/12/10 13:24:34;;;;;;;;;;;9.20;99.90;;;;;;5024827;28;20412;-57
2023/12/10 13:27:02;;;;;;;;;;;9.30;99.90;;;;;;5027820;28;19933;-57
2023/12/10 13:29:30;;;;;;;;;;;9.40;99.90;;;;;;5029430;28;19951;-57
2023/12/10 13:31:58;;;;;;;;;;;9.40;99.90;;;;;;5037644;28;20400;-57
2023/12/10 13:34:26;;;;;;;;;;;9.40;99.90;;;;;;5031677;28;19932;-57
2023/12/10 13:36:54;;;;;;;;;;;9.50;99.90;;;;;;5023003;28;19937;-56
2023/12/10 13:39:22;;;;;;;;;;;9.50;99.90;;;;;;5029443;28;20378;-57
2023/12/10 13:41:50;;;;;;;;;;;9.50;99.90;;;;;;5031367;28;19956;-57
2023/12/10 13:44:17;;;;;;;;;;;9.50;99.90;;;;;;5030901;28;19925;-57
2023/12/10 13:46:46;;;;;;;;;;;9.60;99.90;;;;;;5031411;28;19925;-57
2023/12/10 13:49:15;;;;;;;;;;;9.60;99.90;;;;;;5030992;28;19925;-57
2023/12/10 13:51:44;;;;;;;;;;;9.60;99.90;;;;;;5023597;28;19936;-57
2023/12/10 13:54:11;;;;;;;;;;;9.70;99.90;;;;;;5022830;28;19948;-57
2023/12/10 13:56:39;;;;;;;;;;;9.70;99.90;;;;;;5030750;28;19925;-57
2023/12/10 13:59:07;;;;;;;;;;;9.70;99.90;;;;;;5030878;28;19929;-57
2023/12/10 14:01:35;;;;;;;;;;;9.70;99.90;;;;;;5042132;28;19925;-57
2023/12/10 14:04:03;;;;;;;;;;;9.70;99.90;;;;;;5030469;28;19925;-57
2023/12/10 14:06:31;;;;;;;;;;;9.70;99.90;;;;;;5027340;28;19933;-57
2023/12/10 14:08:58;;;;;;;;;;;9.70;99.90;;;;;;5029590;28;20530;-57
2023/12/10 14:11:29;;;;;;;;;;;9.70;99.90;;;;;;5030585;28;19937;-57
2023/12/10 14:14:07;;;;;;;;;;;9.70;99.90;;;;;;5056996;28;20377;-57
2023/12/10 14:16:35;;;;;;;;;;;9.60;99.90;;;;;;5029157;28;20390;-57
2023/12/10 14:19:03;;;;;;;;;;;9.70;99.90;;;;;;5029035;28;19925;-57
2023/12/10 14:21:31;;;;;;;;;;;9.70;99.90;;;;;;5017465;28;19933;-57
2023/12/10 14:24:00;;;;;;;;;;;9.70;99.90;;;;;;5017966;28;20526;-57
2023/12/10 14:26:27;;;;;;;;;;;9.70;99.90;;;;;;5012075;28;19933;-56
2023/12/10 14:28:57;;;;;;;;;;;9.70;99.90;;;;;;5014690;28;19925;-56
2023/12/10 14:31:27;;;;;;;;;;;9.70;99.90;;;;;;5027584;28;19936;-57
2023/12/10 14:33:55;;;;;;;;;;;9.60;99.90;;;;;;5037851;28;20369;-57
2023/12/10 14:36:24;;;;;;;;;;;9.70;99.90;;;;;;5048496;28;19925;-55
2023/12/10 14:38:54;;;;;;;;;;;9.70;99.90;;;;;;5023804;28;19951;-55